Time;durP1;ratioP1;P1;durP2;ratioP2;P2;SDS_P1;SDS_P2;PMS_P1;PMS_P2;Temp;Humidity;BMP_temperature;BMP_pressure;BME280_temperature;BME280_humidity;BME280_pressure;Samples;Min_cycle;Max_cycle;Signal;HPM_P1;HPM_P2
2024/01/21 00:01:17;;;;;;;3.40;3.17;;;-6.30;99.90;;;;;;4922108;29;20064;-32
2024/01/21 00:03:43;;;;;;;5.05;4.57;;;-6.30;99.90;;;;;;4921977;29;20043;-32
2024/01/21 00:06:09;;;;;;;4.65;4.40;;;-6.30;99.90;;;;;;4920040;29;20043;-32
2024/01/21 00:08:34;;;;;;;4.95;4.10;;;-6.40;99.90;;;;;;4909297;29;20500;-33
2024/01/21 00:11:00;;;;;;;5.55;4.43;;;-6.40;99.90;;;;;;4902954;29;21231;-31
2024/01/21 00:13:26;;;;;;;5.10;4.80;;;-6.50;99.90;;;;;;4909300;29;20035;-34
2024/01/21 00:15:51;;;;;;;7.38;4.43;;;-6.60;99.90;;;;;;4906199;29;20028;-35
2024/01/21 00:18:17;;;;;;;5.45;4.05;;;-6.70;99.90;;;;;;4921723;29;20149;-35
2024/01/21 00:20:43;;;;;;;4.53;4.13;;;-6.70;99.90;;;;;;4924188;29;20052;-32
2024/01/21 00:23:09;;;;;;;6.20;4.28;;;-6.70;99.90;;;;;;4925024;29;20031;-33
2024/01/21 00:25:35;;;;;;;4.35;3.88;;;-6.60;99.90;;;;;;4899770;29;20059;-41
2024/01/21 00:28:01;;;;;;;4.80;2.90;;;-6.60;99.90;;;;;;4902631;29;20035;-41
2024/01/21 00:30:27;;;;;;;3.95;3.63;;;-6.80;99.90;;;;;;4905342;29;20059;-41
2024/01/21 00:32:52;;;;;;;5.22;4.63;;;-6.80;99.90;;;;;;4901785;29;20039;-40
2024/01/21 00:35:18;;;;;;;4.38;3.65;;;-6.80;99.90;;;;;;4904435;29;20024;-32
2024/01/21 00:37:44;;;;;;;4.97;4.47;;;-6.80;99.90;;;;;;4897903;29;20036;-32
2024/01/21 00:40:10;;;;;;;2.92;2.72;;;-6.80;99.90;;;;;;4901727;29;20042;-32
2024/01/21 00:42:36;;;;;;;3.30;3.10;;;-6.80;99.90;;;;;;4900046;29;20123;-34
2024/01/21 00:45:02;;;;;;;8.02;4.13;;;-6.80;99.90;;;;;;4917403;29;20041;-35
2024/01/21 00:47:29;;;;;;;4.88;4.00;;;-6.90;99.90;;;;;;4904344;29;20036;-32
2024/01/21 00:49:55;;;;;;;5.18;4.00;;;-6.90;99.90;;;;;;4920319;29;20024;-31
2024/01/21 00:52:21;;;;;;;3.33;3.03;;;-6.90;99.90;;;;;;4905614;29;20036;-32
2024/01/21 00:54:46;;;;;;;5.10;3.75;;;-6.90;99.90;;;;;;4900241;29;20039;-32
2024/01/21 00:57:12;;;;;;;3.22;3.03;;;-7.00;99.90;;;;;;4910589;29;20028;-32
2024/01/21 00:59:38;;;;;;;3.42;2.72;;;-7.00;99.90;;;;;;4902468;29;20031;-39
2024/01/21 01:02:05;;;;;;;4.70;3.55;;;-7.00;99.90;;;;;;4913615;29;20092;-32
2024/01/21 01:04:31;;;;;;;3.70;3.47;;;-7.00;99.90;;;;;;4900182;29;20032;-34
2024/01/21 01:06:59;;;;;;;3.88;3.35;;;-7.10;99.90;;;;;;4899620;29;20036;-32
2024/01/21 01:09:25;;;;;;;5.97;3.38;;;-7.10;99.90;;;;;;4900658;29;20048;-32
2024/01/21 01:11:50;;;;;;;6.85;4.03;;;-7.10;99.90;;;;;;4901769;29;20037;-32
2024/01/21 01:14:16;;;;;;;4.45;4.05;;;-7.10;99.90;;;;;;4898966;29;20032;-31
2024/01/21 01:16:42;;;;;;;3.03;2.90;;;-7.10;99.90;;;;;;4917958;29;20314;-34
2024/01/21 01:19:08;;;;;;;5.32;4.82;;;-7.10;99.90;;;;;;4900777;29;20149;-32
2024/01/21 01:21:33;;;;;;;2.53;1.58;;;-7.10;99.90;;;;;;4915898;29;20376;-32
2024/01/21 01:23:59;;;;;;;3.72;3.40;;;-7.20;99.90;;;;;;4909934;29;20161;-32
2024/01/21 01:26:25;;;;;;;6.07;5.57;;;-7.30;99.90;;;;;;4919155;29;20050;-32
2024/01/21 01:28:50;;;;;;;3.60;3.25;;;-7.30;99.90;;;;;;4893971;29;20032;-33
2024/01/21 01:31:20;;;;;;;8.88;5.55;;;-7.40;99.90;;;;;;4917870;29;20040;-32
2024/01/21 01:33:46;;;;;;;3.40;3.25;;;-7.40;99.90;;;;;;4920172;29;20055;-43
2024/01/21 01:36:12;;;;;;;3.38;3.17;;;-7.40;99.90;;;;;;4920342;29;20070;-36
2024/01/21 01:38:38;;;;;;;2.65;2.55;;;-7.30;99.90;;;;;;4921241;29;20043;-35
2024/01/21 01:41:04;;;;;;;3.80;3.50;;;-7.40;99.90;;;;;;4920243;29;20028;-33
2024/01/21 01:43:30;;;;;;;3.40;2.83;;;-7.40;99.90;;;;;;4922687;29;20038;-34
2024/01/21 01:45:59;;;;;;;3.47;3.17;;;-7.50;99.90;;;;;;4922174;29;20781;-37
2024/01/21 01:48:26;;;;;;;4.22;3.92;;;-7.60;99.90;;;;;;4920386;29;20028;-38
2024/01/21 01:50:52;;;;;;;2.38;2.22;;;-7.50;99.90;;;;;;4915868;29;20039;-42
2024/01/21 01:53:18;;;;;;;3.70;3.28;;;-7.50;99.90;;;;;;4925351;29;20122;-41
2024/01/21 01:55:44;;;;;;;4.03;3.72;;;-7.50;99.90;;;;;;4916929;29;20094;-39
2024/01/21 01:58:14;;;;;;;7.05;3.70;;;-7.50;99.90;;;;;;4922462;29;20493;-40
2024/01/21 02:00:41;;;;;;;3.58;3.35;;;-7.50;99.90;;;;;;4924732;29;20027;-41
2024/01/21 02:03:07;;;;;;;9.18;2.88;;;-7.50;99.90;;;;;;4921870;29;20107;-39
2024/01/21 02:05:33;;;;;;;1.98;1.88;;;-7.70;99.90;;;;;;4919761;29;20035;-39
2024/01/21 02:07:58;;;;;;;3.85;3.65;;;-7.70;99.90;;;;;;4924946;29;20035;-42
2024/01/21 02:10:24;;;;;;;2.95;2.75;;;-7.70;99.90;;;;;;4921512;29;20036;-37
2024/01/21 02:12:53;;;;;;;4.15;3.50;;;-7.60;99.90;;;;;;4921739;29;20036;-40
2024/01/21 02:15:19;;;;;;;2.35;2.25;;;-7.60;99.90;;;;;;4903759;29;20031;-41
2024/01/21 02:17:45;;;;;;;8.25;5.00;;;-7.60;99.90;;;;;;4919644;29;20024;-39
2024/01/21 02:20:10;;;;;;;4.05;3.22;;;-7.60;99.90;;;;;;4907537;29;20565;-40
2024/01/21 02:22:41;;;;;;;2.95;2.80;;;-7.50;99.90;;;;;;4918742;29;20568;-38
2024/01/21 02:25:08;;;;;;;6.03;5.63;;;-7.50;99.90;;;;;;4919495;29;20048;-40
2024/01/21 02:27:34;;;;;;;5.10;3.80;;;-7.60;99.90;;;;;;4906949;29;20485;-37
2024/01/21 02:30:00;;;;;;;4.68;4.35;;;-7.70;99.90;;;;;;4922973;29;20630;-40
2024/01/21 02:32:26;;;;;;;4.13;3.45;;;-7.60;99.90;;;;;;4903923;29;20779;-39
2024/01/21 02:34:53;;;;;;;4.25;3.83;;;-7.60;99.90;;;;;;4915763;29;20055;-38
2024/01/21 02:37:18;;;;;;;4.32;4.03;;;-7.70;99.90;;;;;;4905767;29;21765;-39
2024/01/21 02:39:44;;;;;;;5.43;4.88;;;-7.60;99.90;;;;;;4919196;29;20024;-41
2024/01/21 02:42:22;;;;;;;2.50;2.40;;;-7.60;99.90;;;;;;4922025;29;20042;-38
2024/01/21 02:44:50;;;;;;;2.40;2.30;;;-7.60;99.90;;;;;;4921953;29;20024;-42
2024/01/21 02:47:15;;;;;;;4.68;3.85;;;-7.70;99.90;;;;;;4922466;29;20031;-41
2024/01/21 02:49:41;;;;;;;3.83;3.00;;;-7.90;99.90;;;;;;4917980;29;20488;-42
2024/01/21 02:52:07;;;;;;;3.88;3.55;;;-7.90;99.90;;;;;;4920852;29;20615;-33
2024/01/21 02:54:32;;;;;;;2.67;2.58;;;-7.80;99.90;;;;;;4917776;29;20067;-35
2024/01/21 02:56:58;;;;;;;4.53;3.42;;;-7.80;99.90;;;;;;4917342;29;20904;-40
2024/01/21 02:59:23;;;;;;;6.03;4.70;;;-7.80;99.90;;;;;;4915531;29;20028;-41
2024/01/21 03:01:49;;;;;;;4.70;4.30;;;-7.80;99.90;;;;;;4916185;29;20032;-41
2024/01/21 03:04:14;;;;;;;4.07;3.72;;;-7.80;99.90;;;;;;4916177;29;20028;-41
2024/01/21 03:06:41;;;;;;;3.53;3.05;;;-7.80;99.90;;;;;;4902085;29;20386;-39
2024/01/21 03:09:07;;;;;;;3.03;2.88;;;-7.80;99.90;;;;;;4915223;29;20063;-40
2024/01/21 03:11:33;;;;;;;2.75;2.55;;;-7.80;99.90;;;;;;4904927;29;20116;-36
2024/01/21 03:13:59;;;;;;;5.35;3.15;;;-7.80;99.90;;;;;;4918034;29;20567;-41
2024/01/21 03:16:25;;;;;;;3.45;3.30;;;-7.80;99.90;;;;;;4919559;29;20024;-41
2024/01/21 03:18:50;;;;;;;2.90;2.42;;;-7.80;99.90;;;;;;4919875;29;20032;-39
2024/01/21 03:21:16;;;;;;;3.17;3.08;;;-7.90;99.90;;;;;;4918190;29;20032;-40
2024/01/21 03:23:42;;;;;;;2.40;2.25;;;-7.80;99.90;;;;;;4918453;29;20058;-42
2024/01/21 03:26:07;;;;;;;2.53;2.35;;;-7.80;99.90;;;;;;4919342;29;20066;-40
2024/01/21 03:28:33;;;;;;;3.42;2.75;;;-8.00;99.90;;;;;;4917529;29;20096;-36
2024/01/21 03:30:59;;;;;;;2.85;2.65;;;-8.00;99.90;;;;;;4916897;29;20043;-40
2024/01/21 03:33:25;;;;;;;3.42;3.13;;;-7.90;99.90;;;;;;4920977;29;20040;-40
2024/01/21 03:35:51;;;;;;;2.80;2.60;;;-7.90;99.90;;;;;;4918394;29;20039;-41
2024/01/21 03:38:17;;;;;;;3.67;3.38;;;-7.90;99.90;;;;;;4919006;29;20379;-40
2024/01/21 03:40:43;;;;;;;2.60;2.50;;;-7.90;99.90;;;;;;4916120;29;20552;-38
2024/01/21 03:43:08;;;;;;;3.30;3.10;;;-7.90;99.90;;;;;;4918373;29;20430;-36
2024/01/21 03:45:34;;;;;;;4.00;3.50;;;-7.80;99.90;;;;;;4917419;29;20380;-37
2024/01/21 03:48:00;;;;;;;2.90;2.65;;;-7.90;99.90;;;;;;4920012;29;20063;-40
2024/01/21 03:50:26;;;;;;;7.43;3.83;;;-8.00;99.90;;;;;;4910517;29;20032;-40
2024/01/21 03:52:51;;;;;;;3.90;3.58;;;-8.00;99.90;;;;;;4918360;29;20368;-39
2024/01/21 03:55:18;;;;;;;4.03;3.70;;;-8.00;99.90;;;;;;4917889;29;20031;-35
2024/01/21 03:57:44;;;;;;;4.22;3.85;;;-8.00;99.90;;;;;;4916732;29;20040;-41
2024/01/21 04:00:11;;;;;;;4.13;3.78;;;-8.00;99.90;;;;;;4917066;29;20477;-40
2024/01/21 04:02:36;;;;;;;4.88;4.57;;;-8.00;99.90;;;;;;4917243;29;20029;-37
2024/01/21 04:05:03;;;;;;;2.42;2.22;;;-8.10;99.90;;;;;;4917601;29;20501;-41
2024/01/21 04:07:29;;;;;;;7.15;4.10;;;-8.20;99.90;;;;;;4916612;29;20083;-39
2024/01/21 04:09:55;;;;;;;3.70;3.40;;;-8.20;99.90;;;;;;4918058;29;20351;-39
2024/01/21 04:12:20;;;;;;;3.53;3.33;;;-8.20;99.90;;;;;;4919897;29;20039;-38
2024/01/21 04:14:46;;;;;;;12.40;3.65;;;-8.10;99.90;;;;;;4916473;29;20039;-41
2024/01/21 04:17:12;;;;;;;3.00;2.90;;;-8.10;99.90;;;;;;4919817;29;20092;-40
2024/01/21 04:19:38;;;;;;;2.92;2.65;;;-8.30;99.90;;;;;;4919399;29;20036;-37
2024/01/21 04:22:04;;;;;;;2.65;2.45;;;-8.20;99.90;;;;;;4919282;29;20047;-39
2024/01/21 04:24:29;;;;;;;7.45;3.63;;;-8.10;99.90;;;;;;4918577;29;20048;-38
2024/01/21 04:26:55;;;;;;;2.78;2.65;;;-8.20;99.90;;;;;;4916094;29;20039;-40
2024/01/21 04:29:21;;;;;;;2.65;2.47;;;-8.20;99.90;;;;;;4918283;29;20439;-41
2024/01/21 04:31:46;;;;;;;2.45;2.25;;;-8.20;99.90;;;;;;4919312;29;20040;-41
2024/01/21 04:34:12;;;;;;;3.72;2.30;;;-8.10;99.90;;;;;;4921585;29;20572;-36
2024/01/21 04:36:38;;;;;;;4.38;3.08;;;-8.10;99.90;;;;;;4918937;29;20035;-41
2024/01/21 04:39:06;;;;;;;2.60;2.50;;;-8.20;99.90;;;;;;4919794;29;20680;-40
2024/01/21 04:41:32;;;;;;;3.55;3.38;;;-8.30;99.90;;;;;;4920305;29;20030;-40
2024/01/21 04:43:57;;;;;;;3.35;3.15;;;-8.30;99.90;;;;;;4917138;29;20032;-38
2024/01/21 04:46:23;;;;;;;3.35;3.20;;;-8.20;99.90;;;;;;4919002;29;20591;-40
2024/01/21 04:48:49;;;;;;;2.05;2.05;;;-8.20;99.90;;;;;;4918259;29;20486;-41
2024/01/21 04:51:14;;;;;;;4.80;3.47;;;-8.30;99.90;;;;;;4914921;29;20498;-41
2024/01/21 04:53:40;;;;;;;2.10;2.08;;;-8.40;99.90;;;;;;4918191;29;20059;-39
2024/01/21 04:56:06;;;;;;;5.65;2.83;;;-8.40;99.90;;;;;;4919353;29;20102;-38
2024/01/21 04:58:35;;;;;;;2.90;2.70;;;-8.50;99.90;;;;;;4917514;29;20060;-40
2024/01/21 05:01:00;;;;;;;3.28;3.08;;;-8.50;99.90;;;;;;4917394;29;20684;-40
2024/01/21 05:03:26;;;;;;;2.53;2.40;;;-8.40;99.90;;;;;;4916427;29;20027;-41
2024/01/21 05:05:52;;;;;;;3.30;2.97;;;-8.40;99.90;;;;;;4917832;29;20133;-40
2024/01/21 05:08:17;;;;;;;2.40;2.30;;;-8.40;99.90;;;;;;4928043;29;20226;-39
2024/01/21 05:10:43;;;;;;;2.97;2.88;;;-8.40;99.90;;;;;;4919680;29;20115;-41
2024/01/21 05:13:09;;;;;;;5.78;5.25;;;-8.40;99.90;;;;;;4922590;29;20489;-39
2024/01/21 05:15:34;;;;;;;3.70;3.47;;;-8.50;99.90;;;;;;4928642;29;20130;-36
2024/01/21 05:18:00;;;;;;;5.35;4.00;;;-8.40;99.90;;;;;;4910130;29;20039;-39
2024/01/21 05:20:25;;;;;;;3.00;2.90;;;-8.40;99.90;;;;;;4919345;29;20034;-40
2024/01/21 05:22:51;;;;;;;4.18;3.67;;;-8.40;99.90;;;;;;4923552;29;20072;-37
2024/01/21 05:25:17;;;;;;;2.58;2.47;;;-8.50;99.90;;;;;;4921289;29;20043;-32
2024/01/21 05:27:43;;;;;;;3.40;3.17;;;-8.50;99.90;;;;;;4910632;29;20065;-33
2024/01/21 05:30:09;;;;;;;2.88;2.78;;;-8.50;99.90;;;;;;4921434;29;20032;-32
2024/01/21 05:32:35;;;;;;;2.78;2.53;;;-8.50;99.90;;;;;;4921889;29;20653;-37
2024/01/21 05:35:00;;;;;;;1.75;1.75;;;-8.50;99.90;;;;;;4904882;29;20068;-32
2024/01/21 05:37:26;;;;;;;2.20;2.10;;;-8.50;99.90;;;;;;4905783;29;20516;-34
2024/01/21 05:39:51;;;;;;;9.93;2.85;;;-8.60;99.90;;;;;;4922376;29;20031;-35
2024/01/21 05:42:17;;;;;;;1.65;1.65;;;-8.60;99.90;;;;;;4922008;29;20043;-35
2024/01/21 05:44:43;;;;;;;3.20;2.95;;;-8.50;99.90;;;;;;4920658;29;20410;-34
2024/01/21 05:47:08;;;;;;;3.03;2.80;;;-8.50;99.90;;;;;;4919588;29;20032;-31
2024/01/21 05:49:34;;;;;;;3.45;3.25;;;-8.50;99.90;;;;;;4919349;29;20027;-37
2024/01/21 05:52:00;;;;;;;4.18;3.75;;;-8.50;99.90;;;;;;4923250;29;20035;-33
2024/01/21 05:54:26;;;;;;;2.65;2.55;;;-8.50;99.90;;;;;;4904621;29;20036;-33
2024/01/21 05:56:54;;;;;;;3.03;2.92;;;-8.60;99.90;;;;;;4903917;29;20095;-36
2024/01/21 05:59:21;;;;;;;3.15;2.95;;;-8.50;99.90;;;;;;4904316;29;20059;-37
2024/01/21 06:01:50;;;;;;;5.30;4.72;;;-8.50;99.90;;;;;;4918215;29;20198;-32
2024/01/21 06:04:16;;;;;;;3.28;2.85;;;-8.60;99.90;;;;;;4922349;29;20084;-32
2024/01/21 06:06:43;;;;;;;4.90;4.70;;;-8.70;99.90;;;;;;4920693;29;20049;-34
2024/01/21 06:09:09;;;;;;;5.70;4.25;;;-8.60;99.90;;;;;;4919425;29;20581;-32
2024/01/21 06:11:34;;;;;;;15.02;11.35;;;-8.60;99.90;;;;;;4920914;29;20032;-36
2024/01/21 06:14:00;;;;;;;5.50;5.10;;;-8.70;99.90;;;;;;4920230;29;20060;-38
2024/01/21 06:16:26;;;;;;;2.90;2.78;;;-8.70;99.90;;;;;;4922473;29;20027;-32
2024/01/21 06:18:51;;;;;;;4.40;4.10;;;-8.60;99.90;;;;;;4918976;29;20035;-38
2024/01/21 06:21:17;;;;;;;4.13;3.80;;;-8.60;99.90;;;;;;4922409;29;20032;-34
2024/01/21 06:23:44;;;;;;;2.97;2.75;;;-8.60;99.90;;;;;;4920664;29;20577;-34
2024/01/21 06:26:20;;;;;;;3.47;3.20;;;-8.60;99.90;;;;;;4919281;29;20032;-35
2024/01/21 06:28:49;;;;;;;2.33;2.25;;;-8.60;99.90;;;;;;4920775;29;20036;-36
2024/01/21 06:31:15;;;;;;;2.08;2.08;;;-8.60;99.90;;;;;;4904083;29;20067;-34
2024/01/21 06:33:41;;;;;;;3.45;3.13;;;-8.60;99.90;;;;;;4906803;29;20036;-39
2024/01/21 06:36:07;;;;;;;2.92;2.80;;;-8.50;99.90;;;;;;4921521;29;20039;-37
2024/01/21 06:38:33;;;;;;;3.97;3.67;;;-8.60;99.90;;;;;;4920134;29;20024;-40
2024/01/21 06:40:59;;;;;;;4.40;4.00;;;-8.50;99.90;;;;;;4923384;29;20039;-41
2024/01/21 06:43:24;;;;;;;3.88;3.67;;;-8.60;99.90;;;;;;4921098;29;20087;-38
2024/01/21 06:45:50;;;;;;;3.22;3.13;;;-8.60;99.90;;;;;;4922824;29;20031;-40
2024/01/21 06:48:15;;;;;;;5.90;4.30;;;-8.60;99.90;;;;;;4922472;29;20027;-40
2024/01/21 06:50:41;;;;;;;3.22;3.13;;;-8.50;99.90;;;;;;4906232;29;20139;-40
2024/01/21 06:53:07;;;;;;;4.32;3.60;;;-8.50;99.90;;;;;;4917937;29;20028;-40
2024/01/21 06:55:32;;;;;;;3.38;3.15;;;-8.60;99.90;;;;;;4923333;29;20032;-40
2024/01/21 06:57:58;;;;;;;3.92;3.65;;;-8.60;99.90;;;;;;4922559;29;20028;-41
2024/01/21 07:00:24;;;;;;;2.90;2.58;;;-8.60;99.90;;;;;;4919834;29;21404;-41
2024/01/21 07:02:49;;;;;;;2.72;2.63;;;-8.60;99.90;;;;;;4921664;29;20107;-37
2024/01/21 07:05:15;;;;;;;2.60;2.50;;;-8.50;99.90;;;;;;4920615;29;20091;-41
2024/01/21 07:07:41;;;;;;;2.83;2.72;;;-8.50;99.90;;;;;;4917988;29;20087;-39
2024/01/21 07:10:07;;;;;;;2.95;2.85;;;-8.60;99.90;;;;;;4920943;29;20025;-42
2024/01/21 07:12:32;;;;;;;4.18;3.90;;;-8.50;99.90;;;;;;4917640;29;20118;-37
2024/01/21 07:14:58;;;;;;;4.20;2.92;;;-8.60;99.90;;;;;;4915946;29;20030;-41
2024/01/21 07:17:24;;;;;;;2.92;2.83;;;-8.60;99.90;;;;;;4919460;29;20058;-42
2024/01/21 07:19:53;;;;;;;5.70;4.80;;;-8.60;99.90;;;;;;4920146;29;20107;-41
2024/01/21 07:22:20;;;;;;;3.10;2.90;;;-8.50;99.90;;;;;;4918664;29;20043;-40
2024/01/21 07:24:45;;;;;;;4.15;3.58;;;-8.50;99.90;;;;;;4916649;29;20063;-39
2024/01/21 07:27:11;;;;;;;3.30;3.03;;;-8.50;99.90;;;;;;4921672;29;20394;-41
2024/01/21 07:29:36;;;;;;;3.88;3.58;;;-8.50;99.90;;;;;;4917033;29;20039;-39
2024/01/21 07:32:02;;;;;;;6.13;5.50;;;-8.50;99.90;;;;;;4916139;29;20036;-38
2024/01/21 07:34:29;;;;;;;2.53;2.38;;;-8.50;99.90;;;;;;4919173;29;20039;-36
2024/01/21 07:36:54;;;;;;;3.95;3.65;;;-8.40;99.90;;;;;;4915864;29;20768;-41
2024/01/21 07:39:20;;;;;;;3.15;2.88;;;-8.50;99.90;;;;;;4918420;29;20036;-39
2024/01/21 07:41:46;;;;;;;3.95;3.13;;;-8.50;99.90;;;;;;4917083;29;20032;-39
2024/01/21 07:44:11;;;;;;;3.88;3.58;;;-8.40;99.90;;;;;;4916311;29;20039;-41
2024/01/21 07:46:37;;;;;;;2.60;2.45;;;-8.40;99.90;;;;;;4918235;29;20386;-35
2024/01/21 07:49:03;;;;;;;3.38;3.15;;;-8.40;99.90;;;;;;4917438;29;20110;-41
2024/01/21 07:51:29;;;;;;;6.85;3.80;;;-8.40;99.90;;;;;;4919564;29;20027;-40
2024/01/21 07:53:54;;;;;;;5.32;3.50;;;-8.40;99.90;;;;;;4915667;29;20035;-38
2024/01/21 07:56:20;;;;;;;4.32;3.83;;;-8.30;99.90;;;;;;4918906;29;20038;-39
2024/01/21 07:58:46;;;;;;;4.53;3.30;;;-8.30;99.90;;;;;;4917541;29;20072;-39
2024/01/21 08:01:12;;;;;;;4.65;3.72;;;-8.30;99.90;;;;;;4918156;29;20374;-38
2024/01/21 08:03:38;;;;;;;4.07;3.78;;;-8.20;99.90;;;;;;4919545;29;20450;-36
2024/01/21 08:06:10;;;;;;;7.95;3.78;;;-8.20;99.90;;;;;;4914555;29;20036;-39
2024/01/21 08:08:36;;;;;;;4.15;3.95;;;-8.10;99.90;;;;;;4917047;29;20035;-34
2024/01/21 08:11:01;;;;;;;2.78;2.67;;;-8.10;99.90;;;;;;4902893;29;20160;-40
2024/01/21 08:13:27;;;;;;;3.45;3.25;;;-8.10;99.90;;;;;;4916585;29;20051;-41
2024/01/21 08:15:52;;;;;;;4.43;4.03;;;-8.00;99.90;;;;;;4899587;29;20048;-41
2024/01/21 08:18:19;;;;;;;3.28;3.03;;;-8.00;99.90;;;;;;4919255;29;20071;-41
2024/01/21 08:20:45;;;;;;;6.57;3.75;;;-8.00;99.90;;;;;;4913310;29;20271;-41
2024/01/21 08:23:10;;;;;;;3.25;3.00;;;-7.90;99.90;;;;;;4916952;29;20098;-38
2024/01/21 08:25:36;;;;;;;4.75;4.45;;;-7.90;99.90;;;;;;4915513;29;20079;-34
2024/01/21 08:28:02;;;;;;;3.42;3.17;;;-7.80;99.90;;;;;;4918768;29;20563;-40
2024/01/21 08:30:28;;;;;;;4.05;3.60;;;-7.70;99.90;;;;;;4916732;29;20036;-39
2024/01/21 08:32:54;;;;;;;3.53;3.28;;;-7.70;99.90;;;;;;4903797;29;20046;-41
2024/01/21 08:35:20;;;;;;;2.70;2.60;;;-7.60;99.90;;;;;;4914994;29;20036;-37
2024/01/21 08:37:49;;;;;;;5.03;3.10;;;-7.60;99.90;;;;;;4918065;29;20494;-33
2024/01/21 08:40:15;;;;;;;2.97;2.45;;;-7.50;99.90;;;;;;4915145;29;20024;-32
2024/01/21 08:42:40;;;;;;;4.20;3.80;;;-7.40;99.90;;;;;;4911848;29;20038;-37
2024/01/21 08:45:07;;;;;;;4.95;3.88;;;-7.40;99.90;;;;;;4921838;29;20393;-33
2024/01/21 08:47:33;;;;;;;3.20;3.03;;;-7.30;99.90;;;;;;4920846;29;20114;-34
2024/01/21 08:49:59;;;;;;;3.22;3.13;;;-7.20;99.90;;;;;;4907339;29;20043;-35
2024/01/21 08:52:25;;;;;;;1.23;1.23;;;-7.10;99.90;;;;;;4921409;29;20111;-32
2024/01/21 08:54:50;;;;;;;4.18;3.45;;;-6.90;99.90;;;;;;4916429;29;20083;-36
2024/01/21 08:57:16;;;;;;;7.63;4.00;;;-6.80;99.90;;;;;;4919522;29;20028;-38
2024/01/21 08:59:42;;;;;;;3.88;3.58;;;-6.80;99.90;;;;;;4919607;29;20083;-36
2024/01/21 09:02:08;;;;;;;3.15;2.88;;;-6.70;99.90;;;;;;4918535;29;20059;-40
2024/01/21 09:04:34;;;;;;;5.07;4.68;;;-6.60;99.90;;;;;;4917498;29;20040;-36
2024/01/21 09:06:59;;;;;;;3.30;3.10;;;-6.50;99.90;;;;;;4903789;29;20071;-39
2024/01/21 09:09:25;;;;;;;3.70;3.42;;;-6.40;99.90;;;;;;4923856;29;20495;-39
2024/01/21 09:11:51;;;;;;;3.88;3.65;;;-6.40;99.90;;;;;;4922413;29;20052;-40
2024/01/21 09:14:18;;;;;;;9.30;3.38;;;-6.30;99.90;;;;;;4913616;29;20128;-38
2024/01/21 09:16:43;;;;;;;4.90;4.32;;;-6.20;99.90;;;;;;4902544;29;20078;-40
2024/01/21 09:19:09;;;;;;;3.95;3.58;;;-6.10;99.90;;;;;;4918678;29;20035;-40
2024/01/21 09:21:36;;;;;;;1.88;1.88;;;-5.90;99.90;;;;;;4939964;23;20040;-71
2024/01/21 09:24:04;;;;;;;8.15;3.83;;;-5.70;99.90;;;;;;4926520;28;20046;-73
2024/01/21 09:26:30;;;;;;;4.85;4.53;;;-5.60;99.90;;;;;;4939438;28;20455;-71
2024/01/21 09:28:56;;;;;;;3.95;3.75;;;-5.50;99.90;;;;;;4944872;28;20035;-71
2024/01/21 09:31:22;;;;;;;5.18;4.68;;;-5.40;99.90;;;;;;4938750;28;20509;-71
2024/01/21 09:33:48;;;;;;;4.28;4.00;;;-5.30;99.90;;;;;;4919916;29;20086;-71
2024/01/21 09:36:15;;;;;;;6.43;5.57;;;-5.20;99.90;;;;;;4942497;28;20039;-72
2024/01/21 09:38:41;;;;;;;3.10;2.83;;;-5.10;99.90;;;;;;4923073;29;20110;-72
2024/01/21 09:41:28;;;;;;;5.25;4.75;;;-4.90;99.90;;;;;;4924020;29;20024;-72
2024/01/21 09:43:53;;;;;;;4.22;3.92;;;-4.90;99.90;;;;;;4924811;29;20236;-72
2024/01/21 09:46:19;;;;;;;14.80;6.25;;;-4.80;99.90;;;;;;4940896;28;20296;-72
2024/01/21 09:48:46;;;;;;;15.32;9.88;;;-4.70;99.90;;;;;;4935769;29;20292;-71
2024/01/21 09:51:12;;;;;;;52.90;27.40;;;-4.60;99.90;;;;;;4942195;29;20405;-71
2024/01/21 09:53:46;;;;;;;30.90;17.08;;;-4.50;99.90;;;;;;4918878;29;20122;-71
2024/01/21 09:56:12;;;;;;;90.07;42.47;;;-4.30;99.90;;;;;;4921896;29;20182;-72
2024/01/21 09:58:50;;;;;;;70.65;33.10;;;-4.10;99.90;;;;;;4920022;29;20027;-71
2024/01/21 10:01:17;;;;;;;211.73;89.43;;;-3.90;99.90;;;;;;4938103;28;20089;-71
2024/01/21 10:03:47;;;;;;;148.20;75.90;;;-3.80;99.90;;;;;;4938455;28;20241;-71
2024/01/21 10:06:12;;;;;;;138.10;64.05;;;-3.60;99.90;;;;;;4923367;29;20038;-71
2024/01/21 10:08:39;;;;;;;88.40;42.13;;;-3.50;99.90;;;;;;4941497;28;20043;-72
2024/01/21 10:11:08;;;;;;;64.80;29.33;;;-3.30;99.90;;;;;;4942363;29;20114;-72
2024/01/21 10:13:38;;;;;;;85.28;39.28;;;-3.10;99.90;;;;;;4937267;28;20479;-73
2024/01/21 10:16:07;;;;;;;67.28;36.72;;;-2.90;99.90;;;;;;4941274;28;20029;-72
2024/01/21 10:18:34;;;;;;;72.40;37.65;;;-2.80;99.90;;;;;;4938646;29;20107;-72
2024/01/21 10:21:04;;;;;;;58.88;30.05;;;-2.60;99.90;;;;;;4923968;29;20028;-72
2024/01/21 10:23:30;;;;;;;9.80;7.78;;;-2.50;99.90;;;;;;4940021;29;20051;-72
2024/01/21 10:25:56;;;;;;;7.88;5.82;;;-2.40;99.90;;;;;;4942660;28;20516;-73
2024/01/21 10:28:22;;;;;;;27.40;12.48;;;-2.20;99.90;;;;;;4939254;29;20039;-72
2024/01/21 10:30:48;;;;;;;118.05;47.40;;;-2.10;99.90;;;;;;4923175;29;20038;-72
2024/01/21 10:33:14;;;;;;;39.53;23.92;;;-2.10;99.90;;;;;;4938261;28;20036;-72
2024/01/21 10:35:43;;;;;;;27.48;11.07;;;-2.00;99.90;;;;;;4921321;29;20253;-72
2024/01/21 10:38:12;;;;;;;;;;;-1.90;99.90;;;;;;4943526;28;20027;-72
2024/01/21 10:40:45;;;;;;;128.20;61.03;;;-1.80;99.90;;;;;;4941660;28;19977;-72
2024/01/21 10:43:15;;;;;;;133.63;58.22;;;-1.70;99.90;;;;;;4923455;29;20035;-72
2024/01/21 10:45:48;;;;;;;15.05;9.75;;;-1.60;99.90;;;;;;4938405;28;20039;-73
2024/01/21 10:48:15;;;;;;;65.57;36.42;;;-1.50;99.90;;;;;;4942778;28;20041;-73
2024/01/21 10:50:44;;;;;;;41.42;27.30;;;-1.40;99.90;;;;;;4941738;28;20043;-73
2024/01/21 10:53:11;;;;;;;;;;;-1.30;99.90;;;;;;4941391;29;20229;-73
2024/01/21 10:55:39;;;;;;;6.70;4.85;;;-1.20;99.90;;;;;;4938010;29;20357;-74
2024/01/21 10:58:06;;;;;;;4.50;4.07;;;-1.10;99.90;;;;;;4942922;29;20031;-73
2024/01/21 11:00:35;;;;;;;6.05;4.85;;;-1.10;99.90;;;;;;4945589;28;20349;-72
2024/01/21 11:03:21;;;;;;;4.95;3.88;;;-0.90;99.90;;;;;;4925170;29;20718;-73
2024/01/21 11:05:47;;;;;;;4.10;3.75;;;-0.80;99.90;;;;;;4930088;29;20078;-73
2024/01/21 11:08:15;;;;;;;4.72;3.05;;;-0.70;99.90;;;;;;4943346;29;20845;-73
2024/01/21 11:10:40;;;;;;;3.40;3.05;;;-0.70;99.90;;;;;;4930465;29;20059;-73
2024/01/21 11:13:07;;;;;;;4.40;3.17;;;-0.60;99.90;;;;;;4927651;29;20738;-72
2024/01/21 11:15:32;;;;;;;4.22;3.83;;;-0.50;99.90;;;;;;4941122;28;20338;-72
2024/01/21 11:18:09;;;;;;;2.50;2.35;;;-0.40;99.90;;;;;;4940786;28;20044;-73
2024/01/21 11:20:34;;;;;;;4.82;3.40;;;-0.30;99.90;;;;;;4940822;28;20031;-73
2024/01/21 11:23:00;;;;;;;5.90;4.68;;;-0.30;99.90;;;;;;4944965;29;20240;-72
2024/01/21 11:25:32;;;;;;;4.88;4.00;;;-0.30;99.90;;;;;;4941539;28;20032;-72
2024/01/21 11:28:03;;;;;;;4.80;3.67;;;-0.20;99.90;;;;;;4941065;28;20440;-73
2024/01/21 11:30:29;;;;;;;4.95;3.67;;;-0.20;99.90;;;;;;4926803;28;20023;-73
2024/01/21 11:32:59;;;;;;;5.65;4.43;;;-0.10;99.90;;;;;;4927695;28;20035;-72
2024/01/21 11:35:27;;;;;;;3.63;3.33;;;0.00;99.90;;;;;;4925378;28;20226;-72
2024/01/21 11:37:53;;;;;;;6.55;4.05;;;0.10;99.90;;;;;;4943406;28;20039;-71
2024/01/21 11:40:19;;;;;;;4.63;4.20;;;0.10;99.90;;;;;;4942486;28;20034;-74
2024/01/21 11:42:49;;;;;;;4.38;3.63;;;0.20;99.90;;;;;;4936751;28;20032;-73
2024/01/21 11:45:17;;;;;;;4.82;3.40;;;0.20;99.90;;;;;;4939935;28;20044;-73
2024/01/21 11:47:45;;;;;;;4.20;3.80;;;0.30;99.90;;;;;;4949062;28;20153;-72
2024/01/21 11:50:10;;;;;;;5.50;4.35;;;0.30;99.90;;;;;;4926542;28;20082;-72
2024/01/21 11:52:36;;;;;;;3.88;3.45;;;0.40;99.90;;;;;;4944944;28;20055;-73
2024/01/21 11:55:02;;;;;;;4.47;3.10;;;0.40;99.90;;;;;;4924514;29;20401;-72
2024/01/21 11:57:28;;;;;;;3.80;3.50;;;0.50;99.90;;;;;;4942020;28;20019;-72
2024/01/21 11:59:54;;;;;;;8.60;5.20;;;0.60;99.90;;;;;;4946140;28;20082;-74
2024/01/21 12:02:20;;;;;;;3.95;3.58;;;0.60;99.90;;;;;;4941449;28;20040;-72
2024/01/21 12:04:46;;;;;;;4.60;3.67;;;0.70;99.90;;;;;;4941599;28;20482;-73
2024/01/21 12:07:12;;;;;;;9.05;5.28;;;0.70;99.90;;;;;;4923641;28;20035;-72
2024/01/21 12:09:38;;;;;;;4.38;3.53;;;0.70;99.90;;;;;;4942683;28;20650;-72
2024/01/21 12:12:08;;;;;;;4.70;3.30;;;0.80;99.90;;;;;;4942804;28;20082;-72
2024/01/21 12:14:33;;;;;;;10.15;4.38;;;0.80;99.90;;;;;;4939383;28;20160;-72
2024/01/21 12:17:01;;;;;;;5.05;3.60;;;0.90;99.90;;;;;;4944933;28;20502;-73
2024/01/21 12:19:27;;;;;;;3.15;2.22;;;0.90;99.90;;;;;;4940905;28;20034;-72
2024/01/21 12:21:54;;;;;;;3.67;3.38;;;1.00;99.90;;;;;;4925045;29;20211;-72
2024/01/21 12:24:22;;;;;;;2.25;2.05;;;1.00;99.90;;;;;;4945844;28;20031;-72
2024/01/21 12:26:48;;;;;;;2.92;2.35;;;1.10;99.90;;;;;;4948004;28;20031;-73
2024/01/21 12:29:14;;;;;;;2.72;1.83;;;1.30;99.90;;;;;;4945323;28;20614;-73
2024/01/21 12:31:40;;;;;;;1.42;1.38;;;1.50;99.90;;;;;;4943819;28;20407;-73
2024/01/21 12:34:08;;;;;;;1.73;1.63;;;1.50;99.90;;;;;;4944371;28;20031;-73
2024/01/21 12:36:35;;;;;;;2.17;2.05;;;1.60;99.90;;;;;;4946488;28;20102;-73
2024/01/21 12:39:06;;;;;;;1.70;1.10;;;1.60;99.90;;;;;;4945709;28;20034;-73
2024/01/21 12:41:33;;;;;;;3.85;2.50;;;1.80;99.90;;;;;;4930464;28;20245;-73